createdAt,value
2022-10-23T00:01:55.658Z,12.07
2022-10-23T00:04:40.908Z,12.03
2022-10-23T00:07:18.457Z,12.05
2022-10-23T00:10:08.566Z,11.98
2022-10-23T00:12:51.007Z,12.01
2022-10-23T00:15:44.587Z,11.95
2022-10-23T00:18:44.343Z,11.94
2022-10-23T00:21:24.388Z,11.90
2022-10-23T00:24:04.206Z,11.94
2022-10-23T00:26:43.842Z,11.88
2022-10-23T00:29:36.442Z,11.87
2022-10-23T00:35:08.205Z,11.78
2022-10-23T00:37:34.759Z,11.76
2022-10-23T00:40:03.704Z,11.72
2022-10-23T00:42:36.027Z,11.69
2022-10-23T00:45:13.947Z,11.63
2022-10-23T00:47:49.371Z,11.70
2022-10-23T00:50:16.699Z,11.71
2022-10-23T00:52:48.270Z,11.67
2022-10-23T00:55:16.227Z,11.55
2022-10-23T00:57:45.275Z,11.66
2022-10-23T01:00:23.907Z,11.58
2022-10-23T01:02:51.621Z,11.54
2022-10-23T01:05:36.377Z,11.52
2022-10-23T01:08:23.066Z,11.50
2022-10-23T01:10:57.536Z,11.43
2022-10-23T01:13:48.777Z,11.47
2022-10-23T01:16:23.646Z,11.52
2022-10-23T01:19:21.056Z,11.47
2022-10-23T01:21:53.706Z,11.47
2022-10-23T01:24:56.797Z,11.44
2022-10-23T01:27:30.928Z,11.43
2022-10-23T01:30:07.418Z,11.41
2022-10-23T01:32:54.838Z,11.38
2022-10-23T01:35:29.130Z,11.34
2022-10-23T01:38:14.419Z,11.33
2022-10-23T01:40:50.799Z,11.24
2022-10-23T01:43:24.515Z,11.26
2022-10-23T01:45:57.761Z,11.18
2022-10-23T01:48:28.968Z,11.25
2022-10-23T01:50:58.837Z,11.12
2022-10-23T01:53:30.693Z,11.22
2022-10-23T01:56:01.638Z,11.22
2022-10-23T01:58:30.666Z,11.20
2022-10-23T02:01:02.787Z,10.90
2022-10-23T02:03:33.180Z,11.20
2022-10-23T02:05:59.871Z,11.18
2022-10-23T02:08:26.710Z,11.01
2022-10-23T02:11:04.793Z,11.18
2022-10-23T02:13:56.557Z,11.20
2022-10-23T02:17:06.152Z,11.20
2022-10-23T02:19:42.759Z,11.15
2022-10-23T02:22:13.297Z,11.18
2022-10-23T02:24:49.109Z,11.17
2022-10-23T02:27:31.825Z,11.15
2022-10-23T02:30:08.391Z,10.96
2022-10-23T02:32:39.214Z,11.06
2022-10-23T02:35:06.710Z,11.02
2022-10-23T02:37:33.723Z,11.09
2022-10-23T02:40:03.945Z,10.95
2022-10-23T02:43:14.287Z,11.01
2022-10-23T02:46:18.869Z,10.98
2022-10-23T02:48:53.888Z,10.94
2022-10-23T02:51:52.845Z,10.94
2022-10-23T02:54:37.838Z,10.79
2022-10-23T02:57:31.307Z,10.87
2022-10-23T03:00:05.439Z,10.78
2022-10-23T03:02:35.029Z,10.82
2022-10-23T03:05:03.057Z,10.59
2022-10-23T03:07:34.343Z,10.65
2022-10-23T03:10:06.326Z,10.77
2022-10-23T03:12:33.488Z,10.63
2022-10-23T03:15:00.262Z,10.67
2022-10-23T03:17:26.822Z,10.62
2022-10-23T03:19:57.437Z,10.66
2022-10-23T03:22:23.967Z,10.66
2022-10-23T03:24:50.542Z,10.57
2022-10-23T03:27:17.721Z,10.64
2022-10-23T03:29:44.266Z,10.61
2022-10-23T03:32:10.830Z,10.54
2022-10-23T03:34:37.850Z,10.50
2022-10-23T03:37:05.085Z,10.33
2022-10-23T03:39:31.638Z,10.44
2022-10-23T03:41:58.335Z,10.39
2022-10-23T03:44:24.855Z,10.45
2022-10-23T03:46:51.513Z,10.49
2022-10-23T03:49:18.044Z,10.48
2022-10-23T03:51:51.715Z,10.42
2022-10-23T03:54:28.203Z,10.47
2022-10-23T03:56:57.388Z,10.36
2022-10-23T03:59:26.460Z,10.39
2022-10-23T04:01:53.761Z,10.34
2022-10-23T04:04:20.425Z,10.29
2022-10-23T04:06:47.639Z,9.82
2022-10-23T04:09:14.433Z,10.05
2022-10-23T04:11:41.482Z,10.23
2022-10-23T04:14:11.967Z,10.03
2022-10-23T04:16:38.831Z,10.21
2022-10-23T04:19:06.398Z,10.29
2022-10-23T04:21:32.989Z,10.15
2022-10-23T04:24:00.617Z,10.23
2022-10-23T04:26:28.164Z,10.15
2022-10-23T04:28:54.733Z,10.16
2022-10-23T04:31:21.302Z,10.11
2022-10-23T04:33:48.318Z,10.11
2022-10-23T04:36:31.710Z,10.15
2022-10-23T04:39:16.866Z,10.04
2022-10-23T04:41:43.404Z,10.06
2022-10-23T04:44:10.009Z,10.04
2022-10-23T04:46:38.533Z,10.05
2022-10-23T04:49:05.283Z,10.07
2022-10-23T04:51:54.626Z,10.10
2022-10-23T04:54:48.146Z,10.14
2022-10-23T04:57:26.290Z,9.95
2022-10-23T05:00:06.419Z,10.09
2022-10-23T05:02:51.649Z,10.08
2022-10-23T05:05:19.946Z,9.96
2022-10-23T05:08:12.262Z,9.88
2022-10-23T05:11:03.003Z,9.81
2022-10-23T05:13:29.616Z,9.92
2022-10-23T05:15:59.018Z,10.09
2022-10-23T05:18:34.739Z,10.04
2022-10-23T05:21:26.960Z,10.12
2022-10-23T05:23:54.738Z,10.10
2022-10-23T05:26:22.448Z,9.88
2022-10-23T05:28:51.838Z,10.05
2022-10-23T05:31:20.773Z,10.03
2022-10-23T05:33:50.901Z,10.02
2022-10-23T05:36:20.072Z,9.93
2022-10-23T05:38:49.907Z,9.97
2022-10-23T05:41:18.264Z,10.05
2022-10-23T05:43:46.204Z,9.90
2022-10-23T05:46:31.539Z,10.06
2022-10-23T05:49:17.006Z,9.99
2022-10-23T05:52:13.031Z,10.06
2022-10-23T05:54:58.055Z,9.94
2022-10-23T05:58:07.984Z,9.94
2022-10-23T06:00:54.588Z,10.01
2022-10-23T06:03:58.465Z,9.97
2022-10-23T06:06:34.271Z,9.92
2022-10-23T06:09:01.737Z,9.90
2022-10-23T06:11:28.590Z,9.92
2022-10-23T06:14:01.039Z,10.00
2022-10-23T06:16:27.975Z,9.94
2022-10-23T06:18:55.052Z,10.04
2022-10-23T06:21:22.002Z,9.78
2022-10-23T06:23:50.755Z,9.97
2022-10-23T06:26:23.551Z,9.83
2022-10-23T06:28:56.335Z,10.05
2022-10-23T06:31:26.825Z,10.01
2022-10-23T06:33:56.118Z,10.01
2022-10-23T06:36:23.106Z,10.11
2022-10-23T06:38:52.071Z,10.15
2022-10-23T06:41:22.050Z,10.20
2022-10-23T06:43:54.305Z,10.23
2022-10-23T06:46:28.674Z,10.28
2022-10-23T06:49:33.903Z,10.06
2022-10-23T06:52:01.877Z,10.08
2022-10-23T06:54:28.484Z,10.32
2022-10-23T06:57:27.627Z,10.31
2022-10-23T06:59:54.383Z,10.37
2022-10-23T07:02:21.296Z,10.23
2022-10-23T07:04:48.255Z,10.31
2022-10-23T07:07:18.365Z,10.26
2022-10-23T07:09:47.755Z,10.46
2022-10-23T07:12:28.378Z,10.50
2022-10-23T07:15:15.820Z,10.01
2022-10-23T07:17:43.168Z,10.53
2022-10-23T07:20:09.826Z,10.64
2022-10-23T07:22:36.592Z,10.56
2022-10-23T07:25:10.544Z,10.71
2022-10-23T07:27:39.191Z,10.76
2022-10-23T07:30:08.693Z,10.79
2022-10-23T07:32:45.456Z,10.81
2022-10-23T07:35:33.012Z,10.95
2022-10-23T07:38:06.750Z,10.96
2022-10-23T07:40:37.325Z,10.88
2022-10-23T07:43:04.850Z,11.12
2022-10-23T07:45:31.520Z,11.10
2022-10-23T07:48:05.284Z,11.18
2022-10-23T07:50:48.717Z,11.25
2022-10-23T07:53:18.467Z,11.29
2022-10-23T07:55:57.895Z,11.44
2022-10-23T07:58:27.715Z,11.44
2022-10-23T08:01:20.776Z,11.60
2022-10-23T08:03:47.536Z,11.64
2022-10-23T08:06:15.434Z,11.74
2022-10-23T08:08:43.041Z,11.73
2022-10-23T08:11:13.875Z,11.89
2022-10-23T08:13:48.523Z,11.97
2022-10-23T08:16:15.882Z,12.07
2022-10-23T08:19:01.477Z,12.05
2022-10-23T08:21:29.284Z,12.26
2022-10-23T08:23:57.475Z,12.35
2022-10-23T08:26:25.342Z,12.46
2022-10-23T08:28:52.948Z,12.58
2022-10-23T08:31:21.197Z,12.66
2022-10-23T08:34:18.828Z,12.76
2022-10-23T08:36:47.337Z,12.85
2022-10-23T08:39:14.384Z,12.94
2022-10-23T08:41:53.202Z,13.05
2022-10-23T08:44:32.478Z,13.13
2022-10-23T08:47:13.362Z,13.24
2022-10-23T08:49:56.370Z,13.32
2022-10-23T08:52:34.488Z,13.41
2022-10-23T08:55:17.563Z,13.49
2022-10-23T08:57:59.034Z,13.51
2022-10-23T09:00:25.788Z,13.67
2022-10-23T09:02:55.318Z,13.69
2022-10-23T09:05:21.899Z,13.87
2022-10-23T09:07:57.462Z,13.96
2022-10-23T09:10:48.101Z,14.07
2022-10-23T09:13:45.319Z,14.18
2022-10-23T09:16:19.547Z,14.23
2022-10-23T09:18:48.233Z,14.37
2022-10-23T09:21:14.869Z,14.48
2022-10-23T09:23:42.022Z,14.58
2022-10-23T09:26:17.089Z,14.63
2022-10-23T09:28:51.956Z,14.77
2022-10-23T09:31:19.699Z,14.86
2022-10-23T09:34:01.195Z,14.96
2022-10-23T09:36:29.500Z,15.07
2022-10-23T09:39:00.381Z,15.15
2022-10-23T09:41:39.258Z,15.18
2022-10-23T09:44:08.846Z,15.30
2022-10-23T09:46:43.249Z,15.35
2022-10-23T09:49:35.658Z,15.38
2022-10-23T09:52:07.032Z,15.54
2022-10-23T09:54:38.138Z,15.64
2022-10-23T09:57:22.416Z,15.74
2022-10-23T10:00:01.897Z,15.85
2022-10-23T10:02:38.491Z,15.95
2022-10-23T10:05:33.292Z,16.04
2022-10-23T10:08:44.203Z,16.17
2022-10-23T10:11:20.498Z,16.25
2022-10-23T10:14:11.889Z,16.34
2022-10-23T10:16:57.407Z,16.41
2022-10-23T10:19:42.732Z,16.46
2022-10-23T10:22:28.418Z,16.53
2022-10-23T10:25:21.602Z,16.58
2022-10-23T10:28:06.705Z,16.66
2022-10-23T10:30:43.194Z,16.69
2022-10-23T10:33:21.960Z,16.78
2022-10-23T10:36:02.292Z,16.90
2022-10-23T10:39:03.726Z,16.97
2022-10-23T10:42:04.194Z,16.99
2022-10-23T10:45:08.066Z,17.03
2022-10-23T10:47:51.678Z,17.06
2022-10-23T10:50:52.241Z,17.11
2022-10-23T10:54:03.893Z,17.12
2022-10-23T10:56:35.109Z,17.19
2022-10-23T10:59:06.763Z,17.24
2022-10-23T11:01:41.653Z,17.23
2022-10-23T11:04:24.818Z,17.32
2022-10-23T11:06:53.976Z,17.33
2022-10-23T11:09:25.026Z,17.43
2022-10-23T11:11:51.616Z,17.45
2022-10-23T11:14:21.900Z,17.46
2022-10-23T11:16:51.888Z,17.54
2022-10-23T11:19:27.511Z,17.60
2022-10-23T11:22:02.493Z,17.64
2022-10-23T11:24:57.215Z,17.67
2022-10-23T11:27:52.196Z,17.70
2022-10-23T11:30:23.995Z,17.72
2022-10-23T11:33:24.522Z,17.77
2022-10-23T11:36:01.165Z,17.79
2022-10-23T11:38:37.338Z,17.80
2022-10-23T11:41:16.282Z,17.77
2022-10-23T11:43:57.357Z,17.86
2022-10-23T11:46:25.334Z,17.86
2022-10-23T11:48:54.016Z,17.87
2022-10-23T11:51:34.381Z,17.95
2022-10-23T11:54:10.241Z,17.98
2022-10-23T11:57:10.810Z,18.02
2022-10-23T11:59:49.506Z,18.07
2022-10-23T12:02:38.227Z,18.12
2022-10-23T12:05:25.997Z,18.14
2022-10-23T12:08:06.763Z,18.20
2022-10-23T12:10:36.891Z,18.21
2022-10-23T12:13:06.047Z,18.24
2022-10-23T12:15:34.887Z,18.25
2022-10-23T12:18:15.045Z,18.31
2022-10-23T12:20:56.683Z,18.34
2022-10-23T12:23:48.092Z,18.30
2022-10-23T12:26:45.775Z,18.41
2022-10-23T12:29:30.821Z,18.45
2022-10-23T12:32:30.896Z,18.52
2022-10-23T12:35:03.521Z,18.55
2022-10-23T12:37:57.612Z,18.53
2022-10-23T12:40:30.013Z,18.54
2022-10-23T12:42:59.499Z,18.59
2022-10-23T12:45:29.530Z,18.62
2022-10-23T12:47:56.394Z,18.64
2022-10-23T12:50:29.599Z,18.65
2022-10-23T12:53:03.769Z,18.69
2022-10-23T12:55:52.399Z,18.72
2022-10-23T12:58:25.383Z,18.73
2022-10-23T13:00:58.833Z,18.75
2022-10-23T13:03:27.505Z,18.81
2022-10-23T13:05:58.585Z,18.82
2022-10-23T13:08:33.951Z,18.82
2022-10-23T13:11:21.004Z,18.81
2022-10-23T13:13:50.339Z,18.84
2022-10-23T13:16:22.310Z,18.92
2022-10-23T13:18:49.132Z,18.91
2022-10-23T13:21:23.108Z,18.95
2022-10-23T13:23:51.213Z,18.96
2022-10-23T13:26:25.643Z,19.00
2022-10-23T13:28:52.613Z,19.00
2022-10-23T13:31:25.308Z,19.02
2022-10-23T13:34:01.397Z,19.04
2022-10-23T13:36:31.075Z,19.02
2022-10-23T13:39:09.622Z,19.08
2022-10-23T13:41:46.882Z,19.07
2022-10-23T13:44:16.071Z,19.05
2022-10-23T13:46:43.586Z,19.04
2022-10-23T13:49:10.454Z,19.09
2022-10-23T13:51:42.642Z,19.11
2022-10-23T13:54:28.981Z,19.09
2022-10-23T13:56:56.731Z,19.09
2022-10-23T13:59:23.951Z,19.11
2022-10-23T14:01:51.178Z,19.14
2022-10-23T14:04:18.678Z,19.13
2022-10-23T14:06:45.522Z,19.14
2022-10-23T14:09:14.676Z,19.14
2022-10-23T14:11:41.959Z,19.12
2022-10-23T14:14:08.771Z,19.11
2022-10-23T14:16:35.512Z,19.08
2022-10-23T14:19:02.135Z,19.07
2022-10-23T14:21:28.676Z,19.08
2022-10-23T14:23:55.222Z,18.98
2022-10-23T14:26:24.429Z,19.10
2022-10-23T14:28:55.559Z,19.10
2022-10-23T14:31:22.617Z,19.11
2022-10-23T14:34:00.719Z,19.12
2022-10-23T14:36:34.312Z,19.09
2022-10-23T14:39:10.076Z,19.09
2022-10-23T14:41:37.295Z,19.08
2022-10-23T14:44:03.858Z,19.08
2022-10-23T14:46:40.013Z,19.08
2022-10-23T14:49:27.013Z,19.07
2022-10-23T14:51:53.532Z,19.04
2022-10-23T14:54:20.120Z,18.97
2022-10-23T14:57:02.390Z,19.00
2022-10-23T14:59:37.076Z,18.95
2022-10-23T15:02:12.752Z,18.93
2022-10-23T15:04:40.608Z,18.88
2022-10-23T15:07:12.196Z,18.91
2022-10-23T15:09:56.137Z,18.88
2022-10-23T15:12:28.045Z,18.84
2022-10-23T15:14:54.556Z,18.87
2022-10-23T15:17:23.765Z,18.86
2022-10-23T15:19:50.611Z,18.85
2022-10-23T15:22:19.489Z,18.83
2022-10-23T15:24:47.871Z,18.80
2022-10-23T15:27:22.911Z,18.77
2022-10-23T15:29:54.632Z,18.78
2022-10-23T15:32:21.244Z,18.77
2022-10-23T15:34:52.665Z,18.69
2022-10-23T15:37:24.625Z,18.73
2022-10-23T15:40:01.395Z,18.70
2022-10-23T15:42:29.686Z,18.65
2022-10-23T15:44:56.217Z,18.60
2022-10-23T15:47:25.559Z,18.60
2022-10-23T15:49:52.243Z,18.52
2022-10-23T15:52:18.789Z,18.49
2022-10-23T15:54:45.359Z,18.53
2022-10-23T15:57:16.666Z,18.44
2022-10-23T15:59:43.157Z,18.42
2022-10-23T16:02:19.188Z,18.36
2022-10-23T16:04:45.787Z,18.33
2022-10-23T16:07:18.019Z,18.26
2022-10-23T16:09:47.322Z,18.26
2022-10-23T16:12:25.351Z,18.21
2022-10-23T16:14:55.786Z,18.21
2022-10-23T16:17:31.338Z,18.21
2022-10-23T16:20:00.779Z,18.17
2022-10-23T16:22:27.684Z,18.22
2022-10-23T16:24:54.623Z,18.12
2022-10-23T16:27:27.346Z,18.11
2022-10-23T16:29:54.010Z,17.93
2022-10-23T16:32:20.679Z,17.99
2022-10-23T16:34:47.479Z,17.95
2022-10-23T16:37:14.104Z,17.92
2022-10-23T16:40:05.550Z,17.87
2022-10-23T16:43:10.741Z,17.77
2022-10-23T16:45:43.455Z,17.73
2022-10-23T16:48:10.101Z,17.73
2022-10-23T16:53:11.868Z,17.64
2022-10-23T16:55:40.666Z,17.56
2022-10-23T16:58:07.494Z,17.60
2022-10-23T17:00:35.248Z,17.51
2022-10-23T17:03:04.450Z,17.53
2022-10-23T17:05:34.974Z,17.44
2022-10-23T17:08:01.974Z,17.45
2022-10-23T17:10:28.977Z,17.37
2022-10-23T17:12:55.754Z,17.38
2022-10-23T17:15:23.859Z,17.29
2022-10-23T17:17:50.596Z,17.28
2022-10-23T17:20:17.375Z,17.24
2022-10-23T17:22:43.983Z,17.14
2022-10-23T17:25:10.632Z,17.12
2022-10-23T17:27:37.208Z,16.96
2022-10-23T17:30:07.126Z,16.92
2022-10-23T17:32:36.581Z,16.92
2022-10-23T17:35:07.008Z,16.94
2022-10-23T17:37:35.831Z,16.94
2022-10-23T17:40:02.713Z,16.67
2022-10-23T17:42:39.971Z,16.78
2022-10-23T17:45:07.147Z,16.77
2022-10-23T17:47:40.174Z,16.58
2022-10-23T17:50:11.216Z,16.61
2022-10-23T17:52:48.106Z,16.55
2022-10-23T17:55:27.517Z,16.59
2022-10-23T17:58:01.996Z,16.54
2022-10-23T18:00:49.231Z,16.57
2022-10-23T18:03:20.066Z,16.41
2022-10-23T18:06:07.850Z,16.28
2022-10-23T18:11:55.276Z,16.51
2022-10-23T18:14:46.581Z,16.41
2022-10-23T18:17:16.173Z,16.35
2022-10-23T18:19:42.821Z,16.31
2022-10-23T18:22:09.480Z,16.30
2022-10-23T18:24:37.920Z,16.24
2022-10-23T18:27:04.511Z,16.30
2022-10-23T18:29:31.060Z,16.22
2022-10-23T18:31:57.814Z,16.25
2022-10-23T18:34:27.579Z,16.22
2022-10-23T18:36:54.665Z,16.18
2022-10-23T18:39:26.010Z,16.11
2022-10-23T18:41:55.900Z,16.17
2022-10-23T18:44:30.577Z,16.13
2022-10-23T18:47:07.362Z,15.99
2022-10-23T18:49:33.946Z,16.10
2022-10-23T18:52:00.566Z,15.89
2022-10-23T18:54:27.366Z,16.01
2022-10-23T18:56:53.921Z,16.03
2022-10-23T18:59:22.298Z,16.07
2022-10-23T19:01:49.580Z,16.05
2022-10-23T19:04:17.830Z,16.00
2022-10-23T19:06:46.389Z,15.86
2022-10-23T19:09:13.900Z,15.83
2022-10-23T19:11:41.949Z,15.80
2022-10-23T19:14:08.489Z,15.76
2022-10-23T19:17:01.610Z,15.84
2022-10-23T19:19:36.044Z,15.79
2022-10-23T19:22:04.214Z,15.77
2022-10-23T19:24:36.699Z,15.73
2022-10-23T19:27:04.082Z,15.51
2022-10-23T19:29:31.465Z,15.65
2022-10-23T19:31:58.468Z,15.70
2022-10-23T19:34:25.302Z,15.52
2022-10-23T19:36:53.433Z,15.63
2022-10-23T19:39:20.356Z,15.56
2022-10-23T19:41:47.002Z,15.50
2022-10-23T19:44:15.040Z,15.56
2022-10-23T19:46:41.784Z,15.56
2022-10-23T19:49:09.051Z,15.37
2022-10-23T19:51:35.968Z,15.48
2022-10-23T19:54:02.667Z,15.39
2022-10-23T19:56:29.299Z,15.39
2022-10-23T19:58:55.933Z,15.31
2022-10-23T20:01:25.184Z,15.34
2022-10-23T20:03:52.206Z,15.16
2022-10-23T20:06:21.676Z,15.19
2022-10-23T20:08:48.814Z,15.20
2022-10-23T20:11:20.382Z,15.25
2022-10-23T20:13:48.340Z,15.21
2022-10-23T20:16:27.927Z,15.12
2022-10-23T20:18:54.861Z,15.27
2022-10-23T20:21:22.355Z,15.19
2022-10-23T20:23:49.119Z,15.19
2022-10-23T20:26:18.806Z,15.17
2022-10-23T20:28:47.096Z,15.11
2022-10-23T20:31:15.145Z,15.24
2022-10-23T20:33:42.183Z,15.19
2022-10-23T20:36:17.661Z,15.23
2022-10-23T20:38:44.203Z,15.12
2022-10-23T20:41:10.804Z,15.11
2022-10-23T20:43:38.315Z,15.06
2022-10-23T20:46:06.628Z,15.17
2022-10-23T20:48:40.288Z,14.96
2022-10-23T20:51:16.541Z,15.06
2022-10-23T20:53:44.789Z,15.00
2022-10-23T20:56:29.854Z,14.95
2022-10-23T20:59:01.511Z,14.98
2022-10-23T21:01:29.550Z,14.94
2022-10-23T21:03:57.712Z,15.04
2022-10-23T21:06:26.986Z,15.07
2022-10-23T21:08:58.586Z,15.06
2022-10-23T21:11:25.993Z,15.00
2022-10-23T21:13:53.041Z,15.13
2022-10-23T21:16:26.098Z,15.10
2022-10-23T21:18:56.741Z,15.18
2022-10-23T21:21:24.409Z,15.21
2022-10-23T21:23:53.399Z,15.03
2022-10-23T21:26:22.546Z,15.14
2022-10-23T21:28:56.276Z,15.18
2022-10-23T21:31:27.725Z,15.27
2022-10-23T21:33:54.289Z,15.24
2022-10-23T21:36:23.796Z,15.32
2022-10-23T21:38:52.857Z,15.34
2022-10-23T21:41:25.007Z,15.35
2022-10-23T21:43:57.458Z,15.11
2022-10-23T21:46:25.793Z,15.24
2022-10-23T21:48:53.010Z,15.35
2022-10-23T21:51:26.101Z,15.37
2022-10-23T21:53:56.370Z,15.32
2022-10-23T21:56:28.369Z,15.23
2022-10-23T21:58:55.486Z,15.24
2022-10-23T22:01:22.269Z,15.17
2022-10-23T22:03:49.699Z,15.29
2022-10-23T22:06:20.002Z,15.26
2022-10-23T22:08:46.722Z,15.25
2022-10-23T22:11:14.631Z,15.32
2022-10-23T22:13:42.935Z,15.25
2022-10-23T22:16:10.490Z,15.13
2022-10-23T22:18:37.502Z,15.32
2022-10-23T22:21:08.889Z,15.30
2022-10-23T22:23:36.139Z,15.31
2022-10-23T22:26:08.140Z,15.32
2022-10-23T22:28:34.771Z,15.30
2022-10-23T22:31:01.851Z,15.29
2022-10-23T22:33:29.103Z,15.20
2022-10-23T22:36:03.135Z,15.29
2022-10-23T22:38:31.681Z,15.35
2022-10-23T22:41:02.099Z,15.39
2022-10-23T22:43:29.389Z,15.53
2022-10-23T22:46:07.849Z,15.50
2022-10-23T22:48:35.680Z,15.55
2022-10-23T22:51:03.241Z,15.66
2022-10-23T22:53:30.000Z,15.45
2022-10-23T22:55:57.410Z,15.73
2022-10-23T22:58:24.934Z,15.75
2022-10-23T23:00:53.994Z,15.83
2022-10-23T23:03:20.628Z,15.65
2022-10-23T23:05:47.943Z,15.89
2022-10-23T23:08:15.042Z,15.97
2022-10-23T23:10:41.760Z,15.74
2022-10-23T23:13:08.356Z,15.94
2022-10-23T23:15:40.341Z,16.08
2022-10-23T23:18:06.957Z,16.10
2022-10-23T23:20:34.485Z,16.18
2022-10-23T23:23:01.025Z,16.26
2022-10-23T23:25:27.700Z,16.29
2022-10-23T23:27:54.877Z,16.20
2022-10-23T23:30:21.712Z,16.30
2022-10-23T23:32:51.147Z,16.40
2022-10-23T23:35:19.486Z,16.36
2022-10-23T23:37:46.602Z,16.38
2022-10-23T23:40:14.008Z,16.39
2022-10-23T23:42:40.846Z,16.48
2022-10-23T23:45:14.513Z,16.44
2022-10-23T23:47:41.700Z,16.53
2022-10-23T23:50:10.231Z,16.56
2022-10-23T23:52:36.827Z,16.54
2022-10-23T23:55:04.185Z,16.52
2022-10-23T23:57:30.875Z,16.37
2022-10-23T23:59:57.419Z,16.49
